This is the latest recevied weather packets stored in our database for station/object N4QEP-13. If no packets are shown the sender has not sent any weather packets the latest 10 day(s).
| Time | Temp. | Humidity | Pressure | Rain* | Wind** | Luminosity | Snow |
|---|---|---|---|---|---|---|---|
| 1777819516 | 19.44° C | 39% | 1022.9 hPa | 0 mm | - | - | - |
| 1777818643 | 18.89° C | 39% | 1023 hPa | 0 mm | - | - | - |
| 1777817739 | 17.78° C | 44% | 1022.7 hPa | 0 mm | - | - | - |
| 1777816838 | 17.22° C | 56% | 1022.4 hPa | 0 mm | - | - | - |
| 1777815928 | 16.11° C | 59% | 1022.3 hPa | 0 mm | - | - | - |
| 1777815027 | 14.44° C | 64% | 1022.4 hPa | 0 mm | - | - | - |
| 1777814132 | 13.89° C | 65% | 1022.1 hPa | 0 mm | - | - | - |
| 1777813249 | 13.33° C | 67% | 1022 hPa | 0 mm | - | - | - |
| 1777812343 | 11.67° C | 70% | 1021.9 hPa | 0 mm | - | - | - |
| 1777811435 | 10.56° C | 74% | 1022 hPa | 0 mm | - | - | - |
| 1777810538 | 9.44° C | 76% | 1021.9 hPa | 0 mm | - | - | - |
| 1777809642 | 8.89° C | 79% | 1021.8 hPa | 0 mm | - | - | - |
| 1777808735 | 7.78° C | 80% | 1021.7 hPa | 0 mm | - | - | - |
| 1777807842 | 7.22° C | 80% | 1021.4 hPa | 0 mm | - | - | - |
| 1777806933 | 7.22° C | 80% | 1021.2 hPa | 0 mm | - | - | - |
| 1777806023 | 7.22° C | 80% | 1021.2 hPa | 0 mm | - | - | - |
| 1777805132 | 6.67° C | 80% | 1021 hPa | 0 mm | - | - | - |
| 1777804218 | 6.67° C | 80% | 1021 hPa | 0 mm | - | - | - |
| 1777803317 | 6.67° C | 80% | 1020.9 hPa | 0 mm | - | - | - |
| 1777802428 | 7.22° C | 80% | 1020.9 hPa | 0 mm | - | - | - |
| 1777801514 | 7.22° C | 79% | 1020.8 hPa | 0 mm | - | - | - |
| 1777800612 | 7.22° C | 78% | 1020.5 hPa | 0 mm | - | - | - |
| 1777799745 | 7.22° C | 76% | 1020.4 hPa | 0 mm | - | - | - |
| 1777798844 | 7.22° C | 73% | 1020.3 hPa | 0 mm | - | - | - |
| 1777797904 | 7.78° C | 70% | 1020.3 hPa | 0 mm | - | - | - |
* Rain latest hour (hover to see other rain measurements)
** Current wind speed in m/s (hover to see current wind gust speed)